createdAt,value
2022-11-29T00:00:28.875Z,3.56
2022-11-29T00:05:30.468Z,3.57
2022-11-29T00:10:32.048Z,3.52
2022-11-29T00:15:37.379Z,3.56
2022-11-29T00:20:40.135Z,3.54
2022-11-29T00:25:41.703Z,3.49
2022-11-29T00:30:43.364Z,3.44
2022-11-29T00:35:44.985Z,3.46
2022-11-29T00:40:51.402Z,3.43
2022-11-29T00:45:52.995Z,3.43
2022-11-29T00:50:54.617Z,3.39
2022-11-29T00:55:56.522Z,3.44
2022-11-29T01:00:58.696Z,3.44
2022-11-29T01:06:12.410Z,3.47
2022-11-29T01:11:20.556Z,3.42
2022-11-29T01:16:22.647Z,3.39
2022-11-29T01:21:24.810Z,3.43
2022-11-29T01:26:28.735Z,3.34
2022-11-29T01:31:35.979Z,3.32
2022-11-29T01:36:37.629Z,3.33
2022-11-29T01:41:39.550Z,3.20
2022-11-29T01:46:43.985Z,3.21
2022-11-29T01:51:51.591Z,3.15
2022-11-29T01:56:53.411Z,3.14
2022-11-29T02:02:05.268Z,3.09
2022-11-29T02:07:07.104Z,3.07
2022-11-29T02:12:36.485Z,3.04
2022-11-29T02:18:04.179Z,2.99
2022-11-29T02:23:47.236Z,2.99
2022-11-29T02:29:19.516Z,3.06
2022-11-29T02:34:51.584Z,3.00
2022-11-29T02:40:20.771Z,3.02
2022-11-29T02:45:22.208Z,3.04
2022-11-29T02:50:57.852Z,3.11
2022-11-29T02:56:24.640Z,3.03
2022-11-29T03:02:05.523Z,3.06
2022-11-29T03:07:19.106Z,3.09
2022-11-29T03:12:43.390Z,3.03
2022-11-29T03:18:23.720Z,3.11
2022-11-29T03:23:33.803Z,3.12
2022-11-29T03:28:41.513Z,3.13
2022-11-29T03:34:11.007Z,3.10
2022-11-29T03:39:18.767Z,3.12
2022-11-29T03:44:27.146Z,3.12
2022-11-29T03:49:46.100Z,3.11
2022-11-29T03:55:06.195Z,3.20
2022-11-29T04:00:10.336Z,3.24
2022-11-29T04:05:53.265Z,3.27
2022-11-29T04:10:58.236Z,3.30
2022-11-29T04:16:18.158Z,3.36
2022-11-29T04:21:38.343Z,3.42
2022-11-29T04:27:16.905Z,3.43
2022-11-29T04:32:54.826Z,3.48
2022-11-29T04:38:23.211Z,3.48
2022-11-29T04:44:02.435Z,3.55
2022-11-29T04:49:09.728Z,3.58
2022-11-29T04:54:29.638Z,3.63
2022-11-29T04:59:34.103Z,3.61
2022-11-29T05:04:50.656Z,3.66
2022-11-29T05:10:01.284Z,3.65
2022-11-29T05:15:39.378Z,3.69
2022-11-29T05:21:13.154Z,3.72
2022-11-29T05:26:22.960Z,3.72
2022-11-29T05:31:39.823Z,3.78
2022-11-29T05:36:44.467Z,3.74
2022-11-29T05:42:08.429Z,3.74
2022-11-29T05:47:11.277Z,3.79
2022-11-29T05:52:19.112Z,3.78
2022-11-29T05:57:37.152Z,3.71
2022-11-29T06:02:47.713Z,3.77
2022-11-29T06:08:19.550Z,3.79
2022-11-29T06:13:47.516Z,3.79
2022-11-29T06:19:01.058Z,3.82
2022-11-29T06:24:26.298Z,3.77
2022-11-29T06:29:54.912Z,3.83
2022-11-29T06:35:03.111Z,3.79
2022-11-29T06:40:06.510Z,3.80
2022-11-29T06:45:12.228Z,3.79
2022-11-29T06:50:19.911Z,3.82
2022-11-29T06:56:00.602Z,3.77
2022-11-29T07:01:31.966Z,3.81
2022-11-29T07:06:35.171Z,3.86
2022-11-29T07:11:37.500Z,3.93
2022-11-29T07:17:04.261Z,3.85
2022-11-29T07:22:37.996Z,3.89
2022-11-29T07:27:52.289Z,3.90
2022-11-29T07:33:17.314Z,3.94
2022-11-29T07:38:49.542Z,3.92
2022-11-29T07:44:00.711Z,3.93
2022-11-29T07:49:02.477Z,4.02
2022-11-29T07:54:05.330Z,4.04
2022-11-29T07:59:11.428Z,4.08
2022-11-29T08:04:13.941Z,4.12
2022-11-29T08:09:15.550Z,4.12
2022-11-29T08:14:17.151Z,4.22
2022-11-29T08:19:18.726Z,4.12
2022-11-29T08:24:20.373Z,4.17
2022-11-29T08:29:21.986Z,4.18
2022-11-29T08:34:24.759Z,4.28
2022-11-29T08:39:26.349Z,4.27
2022-11-29T08:44:28.198Z,4.26
2022-11-29T08:49:29.872Z,4.38
2022-11-29T08:54:31.845Z,4.34
2022-11-29T08:59:33.704Z,4.59
2022-11-29T09:04:35.306Z,4.64
2022-11-29T09:09:36.902Z,4.77
2022-11-29T09:14:38.542Z,4.83
2022-11-29T09:19:40.344Z,4.68
2022-11-29T09:24:42.615Z,4.73
2022-11-29T09:29:44.484Z,4.72
2022-11-29T09:34:46.529Z,4.82
2022-11-29T09:39:48.581Z,4.68
2022-11-29T09:45:21.204Z,4.57
2022-11-29T09:50:36.430Z,4.65
2022-11-29T09:55:53.165Z,4.65
2022-11-29T10:01:03.188Z,4.60
2022-11-29T10:06:16.283Z,4.65
2022-11-29T10:11:23.600Z,4.76
2022-11-29T10:16:44.632Z,4.98
2022-11-29T10:22:15.945Z,5.05
2022-11-29T10:27:23.780Z,5.11
2022-11-29T10:32:30.802Z,5.19
2022-11-29T10:37:32.859Z,5.10
2022-11-29T10:42:49.420Z,5.24
2022-11-29T10:47:54.065Z,5.37
2022-11-29T10:53:03.663Z,5.29
2022-11-29T10:58:16.049Z,5.23
2022-11-29T11:03:27.519Z,5.28
2022-11-29T11:08:30.643Z,5.27
2022-11-29T11:13:32.881Z,5.33
2022-11-29T11:18:35.829Z,5.27
2022-11-29T11:23:45.426Z,5.32
2022-11-29T11:28:46.973Z,5.42
2022-11-29T11:33:48.697Z,5.27
2022-11-29T11:38:56.259Z,5.24
2022-11-29T11:44:00.196Z,5.14
2022-11-29T11:49:01.834Z,5.25
2022-11-29T11:54:03.624Z,5.30
2022-11-29T11:59:05.290Z,5.32
2022-11-29T12:04:25.529Z,5.38
2022-11-29T12:09:39.550Z,5.41
2022-11-29T12:15:02.353Z,5.40
2022-11-29T12:20:17.692Z,5.46
2022-11-29T12:25:27.056Z,5.54
2022-11-29T12:30:28.777Z,5.54
2022-11-29T12:35:36.469Z,5.63
2022-11-29T12:40:52.369Z,5.63
2022-11-29T12:45:59.003Z,5.74
2022-11-29T12:51:18.409Z,5.84
2022-11-29T12:56:37.046Z,5.91
2022-11-29T13:02:00.314Z,5.90
2022-11-29T13:07:24.474Z,5.82
2022-11-29T13:12:47.968Z,5.73
2022-11-29T13:18:21.461Z,5.67
2022-11-29T13:24:00.699Z,5.61
2022-11-29T13:29:03.064Z,5.40
2022-11-29T13:34:10.698Z,5.36
2022-11-29T13:39:32.288Z,5.26
2022-11-29T13:44:45.872Z,5.13
2022-11-29T13:50:04.360Z,5.06
2022-11-29T13:55:11.944Z,5.00
2022-11-29T14:00:36.172Z,4.91
2022-11-29T14:05:39.455Z,4.79
2022-11-29T14:10:48.146Z,4.79
2022-11-29T14:15:54.757Z,4.69
2022-11-29T14:20:58.184Z,4.61
2022-11-29T14:26:00.775Z,4.52
2022-11-29T14:31:04.010Z,4.41
2022-11-29T14:36:14.896Z,4.40
2022-11-29T14:41:58.061Z,4.26
2022-11-29T14:47:13.740Z,4.21
2022-11-29T14:52:15.340Z,4.16
2022-11-29T14:57:47.873Z,4.08
2022-11-29T15:03:06.290Z,4.05
2022-11-29T15:08:29.368Z,4.00
2022-11-29T15:13:36.502Z,3.90
2022-11-29T15:18:53.484Z,3.85
2022-11-29T15:24:03.088Z,3.79
2022-11-29T15:29:17.027Z,3.78
2022-11-29T15:34:31.094Z,3.74
2022-11-29T15:39:35.266Z,3.73
2022-11-29T15:44:37.261Z,3.69
2022-11-29T15:49:38.845Z,3.64
2022-11-29T15:54:44.406Z,3.56
2022-11-29T15:59:53.096Z,3.55
2022-11-29T16:05:20.185Z,3.52
2022-11-29T16:10:46.156Z,3.43
2022-11-29T16:15:48.088Z,3.40
2022-11-29T16:21:04.353Z,3.36
2022-11-29T16:26:23.077Z,3.25
2022-11-29T16:31:36.038Z,3.21
2022-11-29T16:36:37.827Z,3.13
2022-11-29T16:41:39.561Z,3.07
2022-11-29T16:46:41.517Z,3.07
2022-11-29T16:51:48.128Z,2.98
2022-11-29T16:56:51.909Z,2.97
2022-11-29T17:01:54.429Z,2.94
2022-11-29T17:06:56.750Z,2.89
2022-11-29T17:12:01.660Z,2.89
2022-11-29T17:17:03.593Z,2.88
2022-11-29T17:22:05.460Z,2.89
2022-11-29T17:27:07.164Z,2.82
2022-11-29T17:32:08.861Z,2.75
2022-11-29T17:37:10.580Z,2.68
2022-11-29T17:42:12.365Z,2.67
2022-11-29T17:47:14.281Z,2.69
2022-11-29T17:52:15.920Z,2.63
2022-11-29T17:57:18.347Z,2.64
2022-11-29T18:02:19.987Z,2.64
2022-11-29T18:07:21.774Z,2.60
2022-11-29T18:12:23.673Z,2.57
2022-11-29T18:17:25.423Z,2.51
2022-11-29T18:22:27.080Z,2.47
2022-11-29T18:27:28.713Z,2.44
2022-11-29T18:32:30.624Z,2.40
2022-11-29T18:38:06.485Z,2.32
2022-11-29T18:42:53.839Z,2.30
2022-11-29T18:47:55.477Z,2.22
2022-11-29T18:52:58.577Z,2.14
2022-11-29T18:58:00.318Z,2.05
2022-11-29T19:03:01.955Z,2.02
2022-11-29T19:08:03.724Z,1.94
2022-11-29T19:13:05.384Z,1.85
2022-11-29T19:18:06.968Z,1.82
2022-11-29T19:23:08.556Z,1.78
2022-11-29T19:28:14.110Z,1.74
2022-11-29T19:33:16.153Z,1.72
2022-11-29T19:38:18.090Z,1.70
2022-11-29T19:43:19.959Z,1.62
2022-11-29T19:48:22.370Z,1.54
2022-11-29T19:53:24.020Z,1.56
2022-11-29T19:58:25.592Z,1.57
2022-11-29T20:03:30.103Z,1.57
2022-11-29T20:08:31.863Z,1.57
2022-11-29T20:13:33.496Z,1.59
2022-11-29T20:18:36.832Z,1.58
2022-11-29T20:23:39.752Z,1.56
2022-11-29T20:28:41.828Z,1.57
2022-11-29T20:33:45.818Z,1.55
2022-11-29T20:39:18.570Z,1.50
2022-11-29T20:44:30.644Z,1.49
2022-11-29T20:49:32.428Z,1.50
2022-11-29T20:54:34.243Z,1.51
2022-11-29T20:59:35.840Z,1.51
2022-11-29T21:04:37.662Z,1.53
2022-11-29T21:09:39.271Z,1.53
2022-11-29T21:14:41.332Z,1.54
2022-11-29T21:19:43.360Z,1.57
2022-11-29T21:25:05.212Z,1.58
2022-11-29T21:30:16.240Z,1.58
2022-11-29T21:35:18.153Z,1.66
2022-11-29T21:40:19.887Z,1.68
2022-11-29T21:45:21.444Z,1.75
2022-11-29T21:50:22.990Z,1.78
2022-11-29T21:55:31.552Z,1.83
2022-11-29T22:00:37.441Z,1.90
2022-11-29T22:05:39.358Z,1.93
2022-11-29T22:10:41.198Z,1.95
2022-11-29T22:15:42.807Z,2.02
2022-11-29T22:20:47.140Z,2.03
2022-11-29T22:25:48.724Z,2.07
2022-11-29T22:30:50.315Z,2.07
2022-11-29T22:35:52.104Z,2.08
2022-11-29T22:40:53.711Z,1.98
2022-11-29T22:45:55.534Z,1.94
2022-11-29T22:51:06.229Z,1.91
2022-11-29T22:56:10.304Z,1.87
2022-11-29T23:01:14.762Z,1.80
2022-11-29T23:06:18.720Z,1.75
2022-11-29T23:11:23.380Z,1.68
2022-11-29T23:16:27.885Z,1.61
2022-11-29T23:21:35.365Z,1.46
2022-11-29T23:26:40.229Z,1.38
2022-11-29T23:31:42.197Z,1.34
2022-11-29T23:36:48.259Z,1.23
2022-11-29T23:41:53.084Z,1.25
2022-11-29T23:46:54.656Z,1.21
2022-11-29T23:51:56.240Z,1.22
2022-11-29T23:56:58.917Z,1.16
